createdAt,value
2023-03-27T00:00:22.883Z,531.00
2023-03-27T00:04:23.097Z,536.00
2023-03-27T00:08:23.033Z,536.00
2023-03-27T00:12:22.994Z,535.00
2023-03-27T00:16:22.953Z,539.00
2023-03-27T00:20:22.845Z,537.00
2023-03-27T00:24:22.786Z,539.00
2023-03-27T00:28:22.757Z,539.00
2023-03-27T00:32:22.911Z,540.00
2023-03-27T00:36:22.839Z,538.00
2023-03-27T00:40:22.779Z,532.00
2023-03-27T00:44:22.780Z,538.00
2023-03-27T00:48:22.702Z,538.00
2023-03-27T00:52:22.649Z,540.00
2023-03-27T00:56:22.616Z,539.00
2023-03-27T01:00:22.706Z,539.00
2023-03-27T01:04:22.612Z,542.00
2023-03-27T01:08:22.565Z,538.00
2023-03-27T01:12:22.505Z,539.00
2023-03-27T01:16:22.563Z,540.00
2023-03-27T01:20:22.420Z,540.00
2023-03-27T01:24:22.382Z,543.00
2023-03-27T01:28:22.514Z,543.00
2023-03-27T01:32:22.598Z,541.00
2023-03-27T01:36:22.441Z,537.00
2023-03-27T01:40:22.422Z,539.00
2023-03-27T01:44:22.368Z,538.00
2023-03-27T01:48:22.366Z,537.00
2023-03-27T01:52:22.318Z,534.00
2023-03-27T01:56:22.572Z,535.00
2023-03-27T02:00:22.547Z,537.00
2023-03-27T02:04:22.612Z,533.00
2023-03-27T02:08:22.170Z,535.00
2023-03-27T02:12:22.145Z,537.00
2023-03-27T02:16:22.350Z,532.00
2023-03-27T02:20:22.292Z,537.00
2023-03-27T02:24:22.235Z,540.00
2023-03-27T02:28:22.186Z,538.00
2023-03-27T02:32:22.656Z,537.00
2023-03-27T02:36:22.614Z,541.00
2023-03-27T02:40:22.081Z,541.00
2023-03-27T02:44:22.246Z,533.00
2023-03-27T02:48:22.402Z,534.00
2023-03-27T02:52:22.401Z,530.00
2023-03-27T02:56:22.325Z,532.00
2023-03-27T03:00:22.293Z,530.00
2023-03-27T03:04:22.217Z,536.00
2023-03-27T03:08:22.199Z,538.00
2023-03-27T03:12:22.108Z,535.00
2023-03-27T03:16:22.261Z,535.00
2023-03-27T03:20:22.421Z,535.00
2023-03-27T03:24:22.435Z,537.00
2023-03-27T03:28:22.362Z,534.00
2023-03-27T03:32:22.384Z,529.00
2023-03-27T03:36:22.288Z,532.00
2023-03-27T03:40:22.268Z,534.00
2023-03-27T03:44:22.223Z,535.00
2023-03-27T03:48:22.252Z,529.00
2023-03-27T03:52:22.189Z,533.00
2023-03-27T03:56:22.144Z,533.00
2023-03-27T04:00:22.605Z,537.00
2023-03-27T04:04:22.191Z,540.00
2023-03-27T04:08:22.016Z,541.00
2023-03-27T04:12:22.636Z,534.00
2023-03-27T04:16:22.706Z,533.00
2023-03-27T04:20:22.163Z,530.00
2023-03-27T04:24:22.060Z,530.00
2023-03-27T04:28:22.083Z,527.00
2023-03-27T04:32:22.306Z,526.00
2023-03-27T04:36:22.240Z,531.00
2023-03-27T04:40:22.159Z,530.00
2023-03-27T04:44:22.122Z,531.00
2023-03-27T04:48:22.073Z,536.00
2023-03-27T04:52:22.205Z,540.00
2023-03-27T05:00:21.165Z,528.00
2023-03-27T05:04:22.157Z,532.00
2023-03-27T05:08:22.180Z,534.00
2023-03-27T05:12:22.215Z,537.00
2023-03-27T05:16:22.766Z,535.00
2023-03-27T05:20:22.251Z,536.00
2023-03-27T05:24:22.183Z,584.00
2023-03-27T05:28:22.182Z,599.00
2023-03-27T05:32:22.823Z,636.00
2023-03-27T05:36:22.469Z,700.00
2023-03-27T05:40:22.686Z,717.00
2023-03-27T05:44:23.185Z,734.00
2023-03-27T05:48:23.215Z,785.00
2023-03-27T05:52:23.203Z,803.00
2023-03-27T05:56:23.127Z,934.00
2023-03-27T06:00:23.184Z,959.00
2023-03-27T06:04:23.292Z,1009.00
2023-03-27T06:08:23.205Z,1120.00
2023-03-27T06:12:22.781Z,1223.00
2023-03-27T06:16:22.849Z,1251.00
2023-03-27T06:20:22.610Z,1302.00
2023-03-27T06:24:22.680Z,1384.00
2023-03-27T06:28:22.482Z,1450.00
2023-03-27T06:32:22.733Z,1510.00
2023-03-27T06:36:25.957Z,1567.00
2023-03-27T06:40:22.727Z,1637.00
2023-03-27T06:44:22.209Z,1696.00
2023-03-27T06:48:22.725Z,1736.00
2023-03-27T06:52:22.345Z,1798.00
2023-03-27T06:56:22.196Z,1848.00
2023-03-27T07:00:22.228Z,1906.00
2023-03-27T07:04:22.199Z,1942.00
2023-03-27T07:08:24.781Z,2002.00
2023-03-27T07:12:21.492Z,2048.00
2023-03-27T07:16:21.773Z,2124.00
2023-03-27T07:20:21.700Z,1487.00
2023-03-27T07:24:21.275Z,1173.00
2023-03-27T07:28:21.701Z,1308.00
2023-03-27T07:32:34.094Z,1497.00
2023-03-27T07:36:21.704Z,1605.00
2023-03-27T07:40:29.355Z,1687.00
2023-03-27T07:44:21.116Z,1722.00
2023-03-27T07:48:21.209Z,1703.00
2023-03-27T07:52:21.302Z,1634.00
2023-03-27T07:56:21.261Z,1650.00
2023-03-27T08:00:21.780Z,1684.00
2023-03-27T08:04:21.442Z,1221.00
2023-03-27T08:08:21.310Z,1065.00
2023-03-27T08:12:20.883Z,1016.00
2023-03-27T08:16:20.758Z,855.00
2023-03-27T08:20:20.741Z,855.00
2023-03-27T08:24:20.752Z,855.00
2023-03-27T08:28:20.505Z,804.00
2023-03-27T08:32:20.825Z,798.00
2023-03-27T08:36:20.756Z,1035.00
2023-03-27T08:40:20.856Z,1123.00
2023-03-27T08:44:20.404Z,1239.00
2023-03-27T08:48:21.874Z,1323.00
2023-03-27T08:52:22.267Z,1387.00
2023-03-27T08:56:20.479Z,1467.00
2023-03-27T09:00:20.528Z,1566.00
2023-03-27T09:04:19.854Z,1631.00
2023-03-27T09:08:19.837Z,1741.00
2023-03-27T09:12:19.832Z,1780.00
2023-03-27T09:16:19.888Z,1857.00
2023-03-27T09:20:19.763Z,1923.00
2023-03-27T09:24:19.806Z,1995.00
2023-03-27T09:28:29.269Z,1391.00
2023-03-27T09:32:19.838Z,1302.00
2023-03-27T09:36:19.746Z,868.00
2023-03-27T09:40:19.797Z,874.00
2023-03-27T09:44:20.303Z,1088.00
2023-03-27T09:48:19.861Z,1225.00
2023-03-27T09:52:19.643Z,1322.00
2023-03-27T09:56:20.520Z,1420.00
2023-03-27T10:00:19.832Z,1510.00
2023-03-27T10:04:20.570Z,1569.00
2023-03-27T10:08:20.050Z,1633.00
2023-03-27T10:12:19.862Z,1731.00
2023-03-27T10:16:19.931Z,1808.00
2023-03-27T10:20:19.836Z,1902.00
2023-03-27T10:24:19.620Z,1930.00
2023-03-27T10:28:19.836Z,1752.00
2023-03-27T10:32:20.796Z,1718.00
2023-03-27T10:36:20.852Z,1770.00
2023-03-27T10:40:19.659Z,1844.00
2023-03-27T10:44:20.372Z,1911.00
2023-03-27T10:48:19.857Z,1982.00
2023-03-27T10:52:19.941Z,2015.00
2023-03-27T10:56:19.916Z,2064.00
2023-03-27T11:00:19.560Z,2100.00
2023-03-27T11:04:19.401Z,2160.00
2023-03-27T11:08:19.360Z,2217.00
2023-03-27T11:12:19.355Z,2386.00
2023-03-27T11:16:19.177Z,2310.00
2023-03-27T11:20:19.422Z,2323.00
2023-03-27T11:24:19.356Z,2280.00
2023-03-27T11:28:19.923Z,1716.00
2023-03-27T11:32:19.843Z,1655.00
2023-03-27T11:36:19.450Z,1523.00
2023-03-27T11:40:19.839Z,1391.00
2023-03-27T11:44:20.760Z,1321.00
2023-03-27T11:48:20.372Z,1247.00
2023-03-27T11:52:20.379Z,1177.00
2023-03-27T11:56:20.425Z,1179.00
2023-03-27T12:00:20.343Z,887.00
2023-03-27T12:04:20.441Z,1041.00
2023-03-27T12:08:20.519Z,1165.00
2023-03-27T12:12:20.441Z,1300.00
2023-03-27T12:16:20.907Z,1404.00
2023-03-27T12:20:19.929Z,1470.00
2023-03-27T12:24:19.657Z,1541.00
2023-03-27T12:28:23.103Z,1634.00
2023-03-27T12:32:19.908Z,1702.00
2023-03-27T12:36:19.389Z,1769.00
2023-03-27T12:40:19.930Z,1829.00
2023-03-27T12:44:19.901Z,1440.00
2023-03-27T12:48:19.698Z,1095.00
2023-03-27T12:52:20.038Z,883.00
2023-03-27T12:56:19.875Z,868.00
2023-03-27T13:00:20.441Z,683.00
2023-03-27T13:04:21.174Z,706.00
2023-03-27T13:08:20.495Z,823.00
2023-03-27T13:12:20.861Z,857.00
2023-03-27T13:16:20.924Z,924.00
2023-03-27T13:20:20.951Z,937.00
2023-03-27T13:24:20.481Z,941.00
2023-03-27T13:28:20.879Z,941.00
2023-03-27T13:32:20.439Z,942.00
2023-03-27T13:36:20.397Z,938.00
2023-03-27T13:40:20.246Z,926.00
2023-03-27T13:44:20.396Z,921.00
2023-03-27T13:48:20.457Z,920.00
2023-03-27T13:52:20.078Z,918.00
2023-03-27T13:56:20.392Z,914.00
2023-03-27T14:00:20.464Z,915.00
2023-03-27T14:04:20.463Z,914.00
2023-03-27T14:08:20.432Z,920.00
2023-03-27T14:12:20.401Z,924.00
2023-03-27T14:16:20.277Z,921.00
2023-03-27T14:20:20.925Z,920.00
2023-03-27T14:24:20.499Z,924.00
2023-03-27T14:28:20.433Z,929.00
2023-03-27T14:32:20.086Z,924.00
2023-03-27T14:36:20.435Z,926.00
2023-03-27T14:40:20.572Z,924.00
2023-03-27T14:44:20.165Z,919.00
2023-03-27T14:48:20.809Z,918.00
2023-03-27T14:52:20.064Z,926.00
2023-03-27T14:56:20.401Z,925.00
2023-03-27T15:00:20.046Z,922.00
2023-03-27T15:04:20.579Z,914.00
2023-03-27T15:08:19.942Z,910.00
2023-03-27T15:12:19.938Z,912.00
2023-03-27T15:16:19.931Z,908.00
2023-03-27T15:20:20.403Z,909.00
2023-03-27T15:24:20.097Z,904.00
2023-03-27T15:28:20.398Z,903.00
2023-03-27T15:32:19.941Z,899.00
2023-03-27T15:36:19.856Z,897.00
2023-03-27T15:40:19.844Z,894.00
2023-03-27T15:44:19.850Z,895.00
2023-03-27T15:48:19.934Z,897.00
2023-03-27T15:52:19.755Z,896.00
2023-03-27T15:56:19.727Z,889.00
2023-03-27T16:00:20.123Z,885.00
2023-03-27T16:04:19.771Z,877.00
2023-03-27T16:08:19.684Z,869.00
2023-03-27T16:12:19.842Z,867.00
2023-03-27T16:16:19.706Z,870.00
2023-03-27T16:20:19.561Z,870.00
2023-03-27T16:24:19.503Z,860.00
2023-03-27T16:28:19.488Z,855.00
2023-03-27T16:32:19.482Z,839.00
2023-03-27T16:36:19.433Z,830.00
2023-03-27T16:40:19.399Z,820.00
2023-03-27T16:44:19.387Z,821.00
2023-03-27T16:48:19.318Z,824.00
2023-03-27T16:52:19.263Z,823.00
2023-03-27T16:56:19.468Z,819.00
2023-03-27T17:00:19.677Z,808.00
2023-03-27T17:04:19.896Z,807.00
2023-03-27T17:08:19.899Z,804.00
2023-03-27T17:12:19.781Z,801.00
2023-03-27T17:16:19.745Z,798.00
2023-03-27T17:20:19.675Z,799.00
2023-03-27T17:24:19.702Z,795.00
2023-03-27T17:28:19.629Z,794.00
2023-03-27T17:32:19.581Z,791.00
2023-03-27T17:36:26.875Z,792.00
2023-03-27T17:40:19.425Z,787.00
2023-03-27T17:44:19.417Z,786.00
2023-03-27T17:48:19.406Z,785.00
2023-03-27T17:52:19.290Z,779.00
2023-03-27T17:56:19.235Z,778.00
2023-03-27T18:00:19.157Z,770.00
2023-03-27T18:04:19.232Z,767.00
2023-03-27T18:08:19.418Z,769.00
2023-03-27T18:12:19.342Z,772.00
2023-03-27T18:16:19.344Z,764.00
2023-03-27T18:20:19.478Z,766.00
2023-03-27T18:24:19.226Z,765.00
2023-03-27T18:28:19.206Z,760.00
2023-03-27T18:32:19.124Z,758.00
2023-03-27T18:36:19.463Z,756.00
2023-03-27T18:40:19.343Z,750.00
2023-03-27T18:44:19.236Z,751.00
2023-03-27T18:48:19.231Z,748.00
2023-03-27T18:52:19.294Z,750.00
2023-03-27T18:56:19.080Z,746.00
2023-03-27T19:00:19.028Z,743.00
2023-03-27T19:04:18.057Z,739.00
2023-03-27T19:08:19.073Z,736.00
2023-03-27T19:12:19.028Z,732.00
2023-03-27T19:16:19.014Z,732.00
2023-03-27T19:20:18.929Z,730.00
2023-03-27T19:24:18.898Z,732.00
2023-03-27T19:28:18.877Z,728.00
2023-03-27T19:32:18.818Z,728.00
2023-03-27T19:36:18.810Z,723.00
2023-03-27T19:40:18.807Z,716.00
2023-03-27T19:44:18.675Z,715.00
2023-03-27T19:48:19.565Z,710.00
2023-03-27T19:52:18.929Z,706.00
2023-03-27T19:56:19.101Z,712.00
2023-03-27T20:00:19.292Z,712.00
2023-03-27T20:04:19.480Z,710.00
2023-03-27T20:08:19.448Z,708.00
2023-03-27T20:12:19.347Z,706.00
2023-03-27T20:16:19.342Z,703.00
2023-03-27T20:20:19.268Z,702.00
2023-03-27T20:24:19.224Z,701.00
2023-03-27T20:28:19.153Z,693.00
2023-03-27T20:32:19.249Z,693.00
2023-03-27T20:36:19.496Z,695.00
2023-03-27T20:40:19.706Z,693.00
2023-03-27T20:44:19.589Z,682.00
2023-03-27T20:48:19.518Z,681.00
2023-03-27T20:52:19.466Z,678.00
2023-03-27T20:56:19.424Z,672.00
2023-03-27T21:00:19.385Z,677.00
2023-03-27T21:04:19.329Z,674.00
2023-03-27T21:08:19.375Z,671.00
2023-03-27T21:12:19.385Z,667.00
2023-03-27T21:16:19.411Z,665.00
2023-03-27T21:20:19.253Z,662.00
2023-03-27T21:24:19.230Z,660.00
2023-03-27T21:28:19.150Z,662.00
2023-03-27T21:32:19.915Z,655.00
2023-03-27T21:36:19.230Z,664.00
2023-03-27T21:40:19.401Z,657.00
2023-03-27T21:44:19.366Z,649.00
2023-03-27T21:48:19.349Z,652.00
2023-03-27T21:52:19.250Z,649.00
2023-03-27T21:56:19.239Z,652.00
2023-03-27T22:00:19.151Z,656.00
2023-03-27T22:04:21.609Z,651.00
2023-03-27T22:08:19.068Z,644.00
2023-03-27T22:12:19.056Z,645.00
2023-03-27T22:16:19.091Z,648.00
2023-03-27T22:20:18.991Z,650.00
2023-03-27T22:24:18.854Z,646.00
2023-03-27T22:28:18.862Z,643.00
2023-03-27T22:32:18.872Z,640.00
2023-03-27T22:36:18.853Z,637.00
2023-03-27T22:40:18.799Z,638.00
2023-03-27T22:44:18.783Z,633.00
2023-03-27T22:48:18.756Z,632.00
2023-03-27T22:52:18.734Z,632.00
2023-03-27T22:56:18.653Z,625.00
2023-03-27T23:00:18.621Z,623.00
2023-03-27T23:56:24.182Z,610.00
